Create Custom Reports and Graphics: Custom Report

Lindcove R.E.C.

Current Conditions

10/17/21 1:45 AM (-07:00)
Updated Every 15 Minutes
Temp 47.3 °F   0.4
Upper Temp 56.9 °F   0.1
Temp Inversion 9.6 °F   0.5
RH 64 %   12
Dew Pt 35.6 °F   4.0
Wind Dir SE | 136 °
Wind Spd 0.6 mph   0.2
Wind Gust 1.3 mph   1.1
BatVolt 12.5 V   0.0

Today & Yesterday

Lindcove R.E.C.

10/17/21 1:45 AM (-07:00)
Updated Every 15 Minutes
Daily Max Temp 48.7 °F   1.1
Time of Max Temp 0106
Daily Min Temp 46.9 °F   0.4
Time of Min Temp 0142
Upper Max Temp 59.5 °F   0.9
Upper Min Temp 54.8 °F   0.3
Daily Max Wind 2.6 mph   0.2
Time of Max Wind 0117
Max Wind Dir ENE | 57 °
Daily Rain 0.00 In
Yesterday's Max Temp 87.5 °F
Yesterday’s Min Temp 42.4 °F
Yesterday's Max Wind 10.7 mph
Yesterday's Rainfall 0.00 In
Monthly Rain 0.08 In
Seasonal Rainfall 0.09 In

Daily Meteorological Summary

Last 30 Days

Daily Data | America/Los_Angeles
as of 10/17/21 1:50 AM PDT
Date Daily Max Temp (°F) Time of Max Temp Daily Min Temp (°F) Time of Min Temp Daily Rain (In) Seasonal Rainfall (In) Wind Spd (mph) Daily Max Wind (mph) Time of Max Wind Max Wind Dir (°) Dew Pt (°F) Max RH (%) Min RH (%) Upper Max Temp (°F) Max Upper Temp Time Upper Min Temp (°F) Min Upper Temp Time Max Temp Inversion (°F) Time of Max Temp Inversion Min Temp Inversion (°F) Time of Min Temp Inversion Max 1 Min Rain (In) Max 1 Min Rain Time Max 15 Min Rain (In) Max 15 Min Precip Time Max 60 Min Rain (In) Max 60 Min Rain Time Storm Total (In) Bat Volt Min Day (V)
10/16/21 87.5 1447 42.4 0709 0.00 0.09 1.4 10.7 1258 WSW | 244 34.5 84 11 84.6 1640 48.3 0736 17.2 2343 -5.8 1412 - - - - - - - 12.4
10/15/21 83.6 1431 39.9 0717 0.00 0.09 1.2 11.0 1230 SSW | 207 36.7 86 15 80.8 1601 45.6 0648 14.3 2347 -5.8 1139 - - - - - - - 12.3
10/14/21 78.2 1434 36.9 0657 0.00 0.09 1.5 12.9 1116 SSW | 212 33.7 87 15 75.6 1611 41.9 0636 13.2 0101 -6.1 1414 - - - - - - - 12.4
10/13/21 75.8 1554 35.4 0641 0.00 0.09 1.1 9.9 1401 WSW | 249 31.5 90 14 71.7 1600 40.2 0557 13.8 0057 -5.5 1108 - - - - - - - 12.4
10/12/21 69.0 1434 37.5 0710 0.00 0.09 2.0 17.3 1133 SSW | 206 31.5 88 17 66.2 1618 41.5 0611 11.8 2007 -6.0 1434 - - - - - - - 12.4
10/11/21 67.3 1359 42.1 0009 0.00 0.09 2.6 18.8 1051 WNW | 301 38.0 91 21 65.6 1427 46.5 2332 10.8 0145 -3.7 1134 - - - - - - - 12.4
10/10/21 79.0 1558 43.7 0651 0.00 0.09 1.3 9.0 1409 WNW | 297 43.8 94 26 75.7 1552 47.4 0641 11.3 2347 -5.9 1408 - - - - - - - 12.4
10/9/21 73.8 1531 47.4 0705 0.00 0.09 1.4 10.7 1210 SW | 232 45.5 92 32 70.6 1632 48.6 0727 8.4 2031 -5.2 1449 - - - - - - 0.08 12.5
10/8/21 71.5 1503 51.0 0048 0.08 0.09 2.1 12.1 0905 W | 279 48.6 92 43 67.7 1500 52.5 0941 5.1 2318 -5.5 1514 0.01 1107 0.04 1029 0.07 1045 0.08 12.4
10/7/21 81.9 1526 52.7 0537 0.00 0.01 2.0 14.0 1121 SSW | 208 48.0 86 27 78.8 1605 55.8 0643 10.6 1923 -5.4 1209 - - - - - - - 12.4
10/6/21 87.3 1534 53.2 0727 0.00 0.01 1.8 15.1 1206 SW | 232 46.5 77 18 83.5 1711 56.9 0746 12.5 0351 -5.7 1516 - - - - - - - 12.4
10/5/21 88.2 1455 53.9 0609 0.00 0.01 1.7 10.7 1229 SSW | 193 45.5 75 18 85.8 1448 60.3 0440 13.2 0152 -3.4 1522 - - - - - - - 12.4
10/4/21 89.0 1421 51.3 0701 0.00 0.01 1.2 11.2 2219 SSE | 153 42.6 74 15 87.0 1418 57.6 0633 13.7 0216 -3.2 1421 - - - - - - - 12.4
10/3/21 86.2 1433 51.5 0716 0.00 0.01 0.9 7.0 2317 SE | 127 40.7 74 14 85.2 1533 57.8 0554 14.7 1904 -2.1 1332 - - - - - - - 12.4
10/2/21 90.4 1509 49.6 0642 0.00 0.01 1.1 6.6 1207 NNW | 338 40.3 75 13 89.2 1650 56.4 0747 15.9 2241 -3.4 1258 - - - - - - - 12.4
10/1/21 90.2 1604 47.9 0703 0.00 0.01 1.1 6.6 1651 WNW | 290 42.4 81 14 89.7 1645 54.5 0645 15.9 2000 -3.1 1434 - - - - - - - 12.4
9/30/21 84.7 1541 48.3 0640 0.00 0.01 1.0 9.2 1430 WNW | 300 44.6 90 20 85.1 1537 53.0 0536 13.1 2103 -4.8 1141 - - - - - - - 12.4
9/29/21 81.4 1500 49.4 0705 0.00 0.01 1.8 13.2 1114 SSW | 213 44.0 96 19 79.0 1611 52.8 0650 11.0 2042 -4.9 1504 - - - - - - - 12.4
9/28/21 78.6 1600 53.3 0058 0.00 0.01 1.8 10.5 1506 WSW | 249 51.6 92 37 74.6 1712 57.4 0059 9.6 2300 -5.7 1520 - - - - - - - 12.4
9/27/21 87.0 1552 54.4 0703 0.00 0.01 1.6 9.4 1358 WSW | 243 52.8 89 29 84.2 1719 58.1 0643 9.8 2045 -6.0 1400 - - - - - - - 12.4
9/26/21 90.0 1342 54.9 0708 0.00 0.01 1.4 11.0 1241 SW | 223 52.4 85 26 86.8 1637 59.6 0638 11.0 0139 -6.3 1342 - - - - - - - 12.4
9/25/21 87.5 1410 57.5 0706 0.00 0.01 1.0 9.0 0105 NE | 47 50.4 75 25 85.3 1409 63.1 0645 12.1 2018 -3.2 1438 - - - - - - - 12.4
9/24/21 90.5 1451 58.5 0712 0.00 0.01 0.9 6.8 0058 NE | 49 51.5 77 22 88.7 1503 64.3 0743 11.6 2107 -3.8 1224 - - - - - - - 12.4
9/23/21 90.2 1511 57.2 0658 0.00 0.01 1.9 14.2 1406 SW | 232 50.3 83 19 88.6 1538 60.7 0648 12.6 1956 -3.4 1128 - - - - - - - 12.5
9/22/21 99.7 1530 56.9 0601 0.00 0.01 1.3 8.3 1249 W | 277 49.0 77 14 96.8 1516 61.9 0536 15.9 0429 -5.0 1148 - - - - - - - 12.5
9/21/21 89.6 1448 55.8 0657 0.00 0.01 1.1 7.5 2256 WSW | 248 51.9 89 27 89.2 1445 60.9 0536 13.6 1923 -2.1 1453 - - - - - - - 12.5
9/20/21 85.7 1419 52.7 0655 0.00 0.01 1.2 8.8 1201 SW | 230 51.3 88 26 83.9 1408 55.2 0652 10.8 2057 -4.5 1419 - - - - - - - 12.4
9/19/21 85.9 1559 54.7 0706 0.00 0.01 2.4 14.7 1209 WNW | 284 52.2 92 30 84.2 1611 56.6 0720 7.5 0036 -6.7 1400 - - - - - - - 12.4
9/18/21 90.7 1541 55.0 0608 0.00 0.01 1.9 11.4 1340 SW | 218 49.4 80 21 86.9 1525 58.5 0658 10.5 2156 -6.1 1401 - - - - - - - 12.4
9/17/21 86.8 1446 56.6 0706 0.00 0.01 1.7 9.9 1612 NNE | 21 50.6 84 26 85.4 1446 60.0 0648 11.7 0039 -5.3 1157 - - - - - - - 12.4
Max 99.7 - 58.5 - 0.08 - 2.6 18.8 - - 52.8 96 43 96.8 - 64.3 - 17.2 - -2.1 - - - - - - - 0.08 12.5
Avg - - - - - - 1.5 - - - 45.1 - - - - - - - - - - - - - - - - 0.08 -
Min 67.3 - 35.4 - 0.00 - 0.9 6.6 - - 31.5 74 11 65.6 - 40.2 - 5.1 - -6.7 - - - - - - - 0.08 12.3

Daily Bio-Meteorological Summary

Last 30 Days

Daily Data | America/Los_Angeles
as of 10/17/21 1:50 AM PDT
Date Daily Max Temp (°F) Daily Min Temp (°F) Daily Rain (In) GDDs (DL) GDDs (Mx/Mn) Seas GDDs (DL) Seas GDDs (Smpl) Chilling <=45F (hrs) Chill Hrs 32-45F (hrs) Utah Chilling (Units) Chill Portions Hrs 70-85F (hrs) Hrs > 95F (hrs) Powdery Mildew Stress (pts) Bee Hrs Today (Hrs) Hrs <= 32F (hrs) Hrs <= 28F (hrs)
10/16/21 87.5 42.4 0.00 13.5 15.0 4,989 5,112 3.7 3.7 1.0 0 3.66 0.00 10 9.3 0.0 0.0
10/15/21 83.6 39.9 0.00 11.5 11.7 4,975 5,097 7.2 7.2 1.5 0 7.61 0.00 20 9.1 0.0 0.0
10/14/21 78.2 36.9 0.00 8.6 7.5 4,964 5,085 7.8 7.8 4.0 0 5.94 0.00 0 8.8 0.0 0.0
10/13/21 75.8 35.4 0.00 7.5 5.6 4,955 5,077 9.2 9.2 -3.5 0 4.34 0.00 0 8.7 0.0 0.0
10/12/21 69.0 37.5 0.00 5.0 3.3 4,948 5,072 10.5 10.5 5.5 0 0.00 0.00 0 8.3 0.0 0.0
10/11/21 67.3 42.1 0.00 5.3 4.7 4,943 5,069 2.6 2.6 4.0 0 0.00 0.00 10 8.9 0.0 0.0
10/10/21 79.0 43.7 0.00 10.2 11.4 4,937 5,064 2.4 2.4 1.5 0 7.05 0.00 20 9.2 0.0 0.0
10/9/21 73.8 47.4 0.00 7.7 10.6 4,927 5,052 0.0 0.0 1.5 0 3.65 0.00 0 8.3 0.0 0.0
10/8/21 71.5 51.0 0.08 9.7 11.2 4,920 5,042 0.0 0.0 1.0 0 0.81 0.00 10 7.8 0.0 0.0
10/7/21 81.9 52.7 0.00 15.4 17.3 4,910 5,031 0.0 0.0 -13.5 0 7.47 0.00 20 10.8 0.0 0.0
10/6/21 87.3 53.2 0.00 17.0 20.3 4,894 5,013 0.0 0.0 0.0 0 3.96 0.00 0 10.1 0.0 0.0
10/5/21 88.2 53.9 0.00 18.2 21.0 4,877 4,993 0.0 0.0 0.0 0 3.72 0.00 0 11.0 0.0 0.0
10/4/21 89.0 51.3 0.00 18.8 20.2 4,859 4,972 0.0 0.0 -15.5 0 3.10 0.00 0 10.3 0.0 0.0
10/3/21 86.2 51.5 0.00 16.0 18.8 4,841 4,952 0.0 0.0 -1.0 0 3.97 0.00 10 10.0 0.0 0.0
10/2/21 90.4 49.6 0.00 17.4 20.0 4,825 4,933 0.0 0.0 0.0 0 2.96 0.00 20 10.1 0.0 0.0
10/1/21 90.2 47.9 0.00 16.0 19.0 4,807 4,913 0.0 0.0 0.0 0 3.56 0.00 30 9.9 0.0 0.0
9/30/21 84.7 48.3 0.00 14.3 16.5 4,791 4,894 0.0 0.0 0.5 0 8.45 0.00 40 10.0 0.0 0.0
9/29/21 81.4 49.4 0.00 12.4 15.4 4,777 4,878 0.0 0.0 0.5 0 7.55 0.00 20 9.8 0.0 0.0
9/28/21 78.6 53.3 0.00 13.6 15.9 4,764 4,862 0.0 0.0 0.0 0 5.95 0.00 0 11.3 0.0 0.0
9/27/21 87.0 54.4 0.00 18.8 20.7 4,751 4,846 0.0 0.0 -15.0 0 4.67 0.00 0 11.1 0.0 0.0
9/26/21 90.0 54.9 0.00 20.9 22.5 4,732 4,826 0.0 0.0 -15.0 0 2.63 0.00 0 11.4 0.0 0.0
9/25/21 87.5 57.5 0.00 20.8 22.5 4,711 4,803 0.0 0.0 -15.5 0 3.70 0.00 0 11.4 0.0 0.0
9/24/21 90.5 58.5 0.00 21.6 24.5 4,690 4,781 0.0 0.0 -15.5 0 2.54 0.00 0 11.5 0.0 0.0
9/23/21 90.2 57.2 0.00 21.0 23.7 4,669 4,756 0.0 0.0 -14.5 0 2.41 0.00 10 11.5 0.0 0.0
9/22/21 99.7 56.9 0.00 25.4 28.3 4,648 4,732 0.0 0.0 -16.5 0 2.81 3.35 20 11.5 0.0 0.0
9/21/21 89.6 55.8 0.00 20.8 22.7 4,622 4,704 0.0 0.0 -16.5 0 3.70 0.00 30 11.6 0.0 0.0
9/20/21 85.7 52.7 0.00 17.4 19.2 4,601 4,681 0.0 0.0 -14.5 0 9.03 0.00 40 10.9 0.0 0.0
9/19/21 85.9 54.7 0.00 18.3 20.3 4,584 4,662 0.0 0.0 -14.5 0 9.27 0.00 20 11.6 0.0 0.0
9/18/21 90.7 55.0 0.00 20.4 22.8 4,566 4,642 0.0 0.0 -15.0 0 3.60 0.00 0 11.7 0.0 0.0
9/17/21 86.8 56.6 0.00 20.6 21.7 4,545 4,619 0.0 0.0 -15.0 0 4.60 0.00 0 11.7 0.0 0.0
Max 99.7 58.5 0.08 25.4 28.3 - - 10.5 10.5 5.5 0 9.27 3.35 - 11.7 0.0 0.0
Avg - - - 15.5 17.1 - - 1.4 1.4 -6.0 0 4.42 0.11 - 10.3 0.0 0.0
Min 67.3 35.4 0.00 5.0 3.3 - - 0.0 0.0 -16.5 0 0.00 0.00 - 7.8 0.0 0.0
Total - - - 464.0 514.3 - - 43.4 43.4 -180.0 - 132.71 3.35 - 307.6 0.0 0.0

Climate Summary

Lindcove R.E.C.

Current Year | Showing 1/1/21 - 10/16/21
as of 10/17/21 1:50 AM PDT
Temperature (°F) Max Wind Gust (mph) Precip (in) Days
Month Days Avg High Avg Low Max Min Avg Max Total Daily Min Temp < 28 Daily Min Temp < 32 Daily Max Temp > 90 Daily Max Temp > 100 Daily Rain > 0.01 Daily Rain > 0.1
Jan 2021 31 64.3 35.6 76.4 30 10.3 18.2 1.77 0 2 0 0 7 4
Feb 2021 28 68.4 37.3 79.3 32.3 10.6 20.2 0.74 0 0 0 0 2 2
Mar 2021 31 71.1 39.2 86.7 32.8 12.8 24.3 1.23 0 0 0 0 4 4
Apr 2021 30 82.7 45.4 97.1 40.6 13.1 19.3 0.1 0 0 5 0 1 0
May 2021 31 90.1 52.2 104.9 42.4 15 21.3 0 0 0 18 1 0 0
Jun 2021 30 99.2 62.3 114.7 46.9 14.1 26.3 0 0 0 25 14 0 0
Jul 2021 31 104.7 68 113.5 62.3 13.5 16.7 0.01 0 0 31 29 0 0
Aug 2021 31 100.8 63.2 107.9 57.7 12.4 18 0 0 0 28 21 0 0
Sep 2021 30 94.2 57.6 109.1 48.3 11.3 17.3 0 0 0 20 6 0 0
Oct 2021 16 81.2 46 90.4 35.4 11.5 18.8 0.08 0 0 2 0 1 0
Total 289 - - - - - - 3.93 0 2 129 71 15 10
Average 28.9 86 51 86 51 12.5 - 0.39 0 0.2 12.9 7.1 1.5 1
Maximum 31 104.7 68 114.7 - - 26.3 1.77 0 2 31 29 7 4
Minimum 16 64.3 35.6 - 30 - - 0 0 0 0 0 0 0

Climate Summary

Lindcove R.E.C.

Last Year | Showing 1/1/20 - 12/31/20
as of 10/17/21 1:50 AM PDT
Temperature (°F) Max Wind Gust (mph) Precip (in) Days
Month Days Avg High Avg Low Max Min Avg Max Total Daily Min Temp < 28 Daily Min Temp < 32 Daily Max Temp > 90 Daily Max Temp > 100 Daily Rain > 0.01 Daily Rain > 0.1
Jan 2020 31 60.7 37.8 69.2 31.5 8.8 28.1 0.56 0 2 0 0 1 1
Feb 2020 29 72.1 36.3 86.4 26.9 10.4 19.5 0.34 2 7 0 0 1 1
Mar 2020 31 69.6 42.1 87.1 33.2 12.6 24.6 2.19 0 0 0 0 9 6
Apr 2020 30 77.4 49.8 95.7 37.2 12.4 19.5 2.4 0 0 4 0 7 6
May 2020 31 89.7 53.9 108.2 45.3 14.6 22.8 0.38 0 0 12 6 1 1
Jun 2020 30 95.8 59.8 107.5 47.1 14.4 21.9 0 0 0 20 13 0 0
Jul 2020 31 101.3 62.7 108.7 55.4 13.4 16.2 0.1 0 0 31 19 2 0
Aug 2020 31 101.6 65.7 111 58.9 12.7 16 0 0 0 31 22 0 0
Sep 2020 30 93.3 59.5 107.3 53.3 9.9 14.5 0 0 0 20 4 0 0
Oct 2020 31 87.9 50.4 98.4 37.1 9.4 14.9 0 0 0 12 0 0 0
Nov 2020 30 69.7 37.9 86.3 29 8.9 20.6 0.44 0 6 0 0 2 2
Dec 2020 31 63.6 33.5 77.9 28.5 8.8 21.9 0.57 0 15 0 0 6 2
Total 366 - - - - - - 6.98 2 30 130 64 29 19
Average 30.5 81.9 49.1 81.9 49.1 11.4 - 0.58 0.2 2.5 10.8 5.3 2.4 1.6
Maximum 31 101.6 65.7 111 - - 28.1 2.4 2 15 31 22 9 6
Minimum 29 60.7 33.5 - 26.9 - - 0 0 0 0 0 0 0
Calm: 0.0%
Calm: 0.0%